createdAt,value
2023-05-16T00:00:45.289Z,8.8516
2023-05-16T00:04:50.456Z,8.8298
2023-05-16T00:06:51.992Z,8.9268
2023-05-16T00:07:54.079Z,8.9528
2023-05-16T00:08:55.929Z,8.9382
2023-05-16T00:09:56.605Z,8.9190
2023-05-16T00:10:57.199Z,8.9136
2023-05-16T00:11:58.425Z,8.9070
2023-05-16T00:13:00.005Z,8.8786
2023-05-16T00:14:00.356Z,8.9153
2023-05-16T00:15:01.894Z,8.9564
2023-05-16T00:16:01.920Z,9.0077
2023-05-16T00:17:04.000Z,9.0687
2023-05-16T00:18:05.400Z,9.1020
2023-05-16T00:19:06.901Z,9.1024
2023-05-16T00:20:06.456Z,9.1051
2023-05-16T00:21:07.100Z,9.1319
2023-05-16T00:22:08.883Z,9.1623
2023-05-16T00:23:10.632Z,9.1949
2023-05-16T00:24:12.531Z,9.2168
2023-05-16T00:25:14.628Z,9.2017
2023-05-16T00:26:16.410Z,9.1889
2023-05-16T00:27:19.069Z,9.1919
2023-05-16T00:28:20.385Z,9.1706
2023-05-16T00:29:21.541Z,9.2026
2023-05-16T00:30:24.155Z,9.1859
2023-05-16T00:31:24.722Z,9.1741
2023-05-16T00:32:25.971Z,9.1672
2023-05-16T00:33:27.052Z,9.1699
2023-05-16T00:34:27.440Z,9.2169
2023-05-16T00:35:28.736Z,9.2475
2023-05-16T00:36:30.777Z,9.2576
2023-05-16T00:37:32.800Z,9.2755
2023-05-16T00:38:33.847Z,9.3070
2023-05-16T00:42:36.500Z,9.3438
2023-05-16T00:43:38.800Z,9.3201
2023-05-16T00:44:40.346Z,9.2815
2023-05-16T00:45:41.025Z,9.2472
2023-05-16T00:50:47.059Z,9.2233
2023-05-16T00:51:47.492Z,9.1876
2023-05-16T00:52:47.608Z,9.1740
2023-05-16T00:53:49.698Z,9.1965
2023-05-16T00:54:51.076Z,9.1869
2023-05-16T00:55:52.477Z,9.2276
2023-05-16T00:56:52.601Z,9.2310
2023-05-16T00:57:54.049Z,9.2158
2023-05-16T00:58:55.113Z,9.2301
2023-05-16T00:59:56.473Z,9.2365
2023-05-16T01:00:56.704Z,9.2171
2023-05-16T01:01:58.068Z,9.2113
2023-05-16T01:02:59.668Z,9.1966
2023-05-16T01:04:01.695Z,9.1744
2023-05-16T01:05:03.035Z,9.1526
2023-05-16T01:06:04.139Z,9.1390
2023-05-16T01:07:06.683Z,9.1393
2023-05-16T01:08:07.305Z,9.1783
2023-05-16T01:16:15.065Z,9.2270
2023-05-16T01:17:16.587Z,9.2677
2023-05-16T01:24:24.370Z,9.2792
2023-05-16T01:25:25.907Z,9.2845
2023-05-16T01:26:26.151Z,9.2744
2023-05-16T01:27:27.437Z,9.2887
2023-05-16T01:30:31.238Z,9.2998
2023-05-16T01:31:31.530Z,9.3019
2023-05-16T01:33:34.681Z,9.3229
2023-05-16T01:34:37.007Z,9.3335
2023-05-16T01:35:38.025Z,9.3300
2023-05-16T01:36:38.677Z,9.3290
2023-05-16T01:37:40.225Z,9.3008
2023-05-16T01:38:41.867Z,9.2882
2023-05-16T01:40:45.149Z,9.3015
2023-05-16T01:41:46.496Z,9.2921
2023-05-16T01:42:47.900Z,9.2886
2023-05-16T01:43:50.444Z,9.2877
2023-05-16T01:44:50.606Z,9.3068
2023-05-16T01:45:51.825Z,9.3548
2023-05-16T01:46:52.692Z,9.3972
2023-05-16T01:47:53.931Z,9.4153
2023-05-16T01:48:55.726Z,9.4569
2023-05-16T01:49:55.895Z,9.4924
2023-05-16T01:51:56.662Z,9.4879
2023-05-16T01:52:59.542Z,9.4787
2023-05-16T01:53:59.665Z,9.4773
2023-05-16T01:55:00.188Z,9.4562
2023-05-16T01:56:00.771Z,9.4421
2023-05-16T02:01:04.852Z,9.4477
2023-05-16T02:04:06.963Z,9.4573
2023-05-16T02:11:12.874Z,9.5299
2023-05-16T02:12:13.584Z,9.5053
2023-05-16T02:13:14.455Z,9.5006
2023-05-16T02:14:16.687Z,9.5303
2023-05-16T02:15:18.086Z,9.5385
2023-05-16T02:16:19.624Z,9.5198
2023-05-16T02:17:20.141Z,9.5082
2023-05-16T02:18:22.099Z,9.5291
2023-05-16T02:19:23.660Z,9.5111
2023-05-16T02:21:24.151Z,9.5039
2023-05-16T02:22:26.376Z,9.5248
2023-05-16T02:23:28.183Z,9.5168
2023-05-16T02:24:29.188Z,9.5466
2023-05-16T02:25:29.504Z,9.5611
2023-05-16T02:26:30.473Z,9.5748
2023-05-16T02:27:32.034Z,9.5535
2023-05-16T02:35:36.200Z,9.5342
2023-05-16T02:36:36.810Z,9.5259
2023-05-16T02:37:38.471Z,9.5267
2023-05-16T02:38:39.985Z,9.5344
2023-05-16T02:39:40.899Z,9.5433
2023-05-16T02:40:42.889Z,9.5259
2023-05-16T02:42:44.900Z,9.5150
2023-05-16T02:43:47.177Z,9.4959
2023-05-16T02:44:46.485Z,9.4809
2023-05-16T02:45:48.639Z,9.4674
2023-05-16T02:46:49.132Z,9.4810
2023-05-16T02:47:49.834Z,9.4649
2023-05-16T02:48:50.383Z,9.4786
2023-05-16T02:49:51.328Z,9.4698
2023-05-16T02:50:52.614Z,9.4896
2023-05-16T02:51:53.994Z,9.4856
2023-05-16T02:52:54.478Z,9.4601
2023-05-16T02:53:56.396Z,9.4664
2023-05-16T02:55:09.780Z,9.4642
2023-05-16T02:55:58.242Z,9.4539
2023-05-16T02:56:59.988Z,9.4376
2023-05-16T02:58:00.339Z,9.4130
2023-05-16T02:59:01.380Z,9.4103
2023-05-16T03:07:09.807Z,9.3789
2023-05-16T03:08:10.357Z,9.3904
2023-05-16T03:09:12.064Z,9.3937
2023-05-16T03:10:13.578Z,9.3854
2023-05-16T03:11:15.074Z,9.3877
2023-05-16T03:12:15.860Z,9.4007
2023-05-16T03:13:18.505Z,9.3960
2023-05-16T03:14:19.477Z,9.3904
2023-05-16T03:15:21.928Z,9.4001
2023-05-16T03:16:23.531Z,9.3925
2023-05-16T03:17:25.077Z,9.3825
2023-05-16T03:18:28.017Z,9.3906
2023-05-16T03:21:31.208Z,9.3733
2023-05-16T03:24:34.466Z,9.3548
2023-05-16T03:25:35.356Z,9.3800
2023-05-16T03:27:39.530Z,9.3802
2023-05-16T03:28:41.133Z,9.3786
2023-05-16T03:29:41.251Z,9.3683
2023-05-16T03:30:42.751Z,9.3738
2023-05-16T03:31:43.652Z,9.3634
2023-05-16T03:32:44.319Z,9.3566
2023-05-16T03:33:47.145Z,9.3543
2023-05-16T03:35:47.693Z,9.3326
2023-05-16T03:36:48.800Z,9.3068
2023-05-16T03:37:48.952Z,9.3143
2023-05-16T03:38:49.929Z,9.3322
2023-05-16T03:49:58.060Z,9.2673
2023-05-16T03:50:59.743Z,9.2748
2023-05-16T03:52:01.200Z,9.2602
2023-05-16T03:53:01.959Z,9.2617
2023-05-16T03:54:03.703Z,9.2471
2023-05-16T03:57:04.774Z,9.2604
2023-05-16T03:58:05.464Z,9.2563
2023-05-16T03:59:08.069Z,9.2540
2023-05-16T04:00:08.814Z,9.2404
2023-05-16T04:01:09.998Z,9.2430
2023-05-16T04:02:12.309Z,9.2530
2023-05-16T04:03:12.317Z,9.2703
2023-05-16T04:04:14.317Z,9.2661
2023-05-16T04:05:16.263Z,9.2563
2023-05-16T04:06:18.980Z,9.2607
2023-05-16T04:07:19.625Z,9.2677
2023-05-16T04:08:21.040Z,9.2576
2023-05-16T04:09:23.729Z,9.2550
2023-05-16T04:10:24.372Z,9.2529
2023-05-16T04:13:28.212Z,9.2654
2023-05-16T04:14:29.169Z,9.2742
2023-05-16T04:15:29.361Z,9.2891
2023-05-16T04:16:31.307Z,9.2921
2023-05-16T04:17:31.801Z,9.3049
2023-05-16T04:18:33.180Z,9.3000
2023-05-16T04:19:33.548Z,9.3119
2023-05-16T04:20:33.607Z,9.3263
2023-05-16T04:21:35.722Z,9.3375
2023-05-16T04:22:36.416Z,9.3472
2023-05-16T04:23:37.162Z,9.3605
2023-05-16T04:24:37.609Z,9.3735
2023-05-16T04:29:42.023Z,9.3908
2023-05-16T04:35:46.637Z,9.4303
2023-05-16T04:37:47.991Z,9.4292
2023-05-16T04:38:49.230Z,9.4523
2023-05-16T04:39:50.509Z,9.4513
2023-05-16T04:40:52.369Z,9.4384
2023-05-16T04:41:54.134Z,9.4521
2023-05-16T04:42:56.077Z,9.4877
2023-05-16T04:43:56.392Z,9.4924
2023-05-16T04:44:57.745Z,9.5128
2023-05-16T04:48:00.136Z,9.5656
2023-05-16T04:54:07.368Z,9.6780
2023-05-16T04:55:07.552Z,9.6804
2023-05-16T04:58:09.058Z,9.8187
2023-05-16T04:59:09.289Z,9.8324
2023-05-16T05:00:09.849Z,9.8298
2023-05-16T05:01:10.790Z,9.7490
2023-05-16T05:02:12.263Z,9.7607
2023-05-16T05:03:12.600Z,9.7654
2023-05-16T05:04:15.195Z,9.7188
2023-05-16T05:05:16.333Z,9.7621
2023-05-16T05:06:16.441Z,9.8137
2023-05-16T05:07:18.240Z,9.8543
2023-05-16T05:08:20.448Z,9.8921
2023-05-16T05:09:21.234Z,9.8378
2023-05-16T05:11:22.431Z,9.8857
2023-05-16T05:12:23.928Z,9.8698
2023-05-16T05:13:25.403Z,9.9188
2023-05-16T05:18:31.914Z,9.8702
2023-05-16T05:19:32.052Z,9.9558
2023-05-16T05:20:33.628Z,9.9466
2023-05-16T05:21:34.571Z,9.9337
2023-05-16T05:22:36.282Z,9.9136
2023-05-16T05:23:37.531Z,9.9620
2023-05-16T05:24:39.019Z,10.0048
2023-05-16T05:25:40.185Z,10.0272
2023-05-16T05:26:41.942Z,10.1060
2023-05-16T05:27:43.865Z,10.1436
2023-05-16T05:28:53.914Z,10.1160
2023-05-16T05:29:46.850Z,10.1517
2023-05-16T05:30:49.081Z,10.2271
2023-05-16T05:31:49.525Z,10.2174
2023-05-16T05:32:52.402Z,10.3063
2023-05-16T05:33:54.484Z,10.3101
2023-05-16T05:34:54.996Z,10.2608
2023-05-16T05:35:55.799Z,10.2291
2023-05-16T05:42:00.380Z,10.4922
2023-05-16T05:44:02.082Z,10.5602
2023-05-16T05:45:02.638Z,10.6070
2023-05-16T05:46:03.467Z,10.5460
2023-05-16T05:47:05.344Z,10.6130
2023-05-16T05:49:05.523Z,10.5816
2023-05-16T05:50:06.728Z,10.4938
2023-05-16T05:51:08.585Z,10.5127
2023-05-16T05:52:08.841Z,10.6140
2023-05-16T05:53:11.076Z,10.6433
2023-05-16T05:54:13.315Z,10.6929
2023-05-16T05:55:13.611Z,10.7627
2023-05-16T05:56:14.154Z,10.8090
2023-05-16T05:57:14.904Z,10.7688
2023-05-16T05:58:17.884Z,10.6712
2023-05-16T05:59:19.512Z,10.6553
2023-05-16T06:00:20.753Z,10.6155
2023-05-16T06:01:21.133Z,10.6011
2023-05-16T06:02:22.661Z,10.5260
2023-05-16T06:03:24.877Z,10.4879
2023-05-16T06:04:25.322Z,10.4770
2023-05-16T06:05:26.289Z,10.5309
2023-05-16T06:06:28.411Z,10.6442
2023-05-16T06:07:29.496Z,10.7023
2023-05-16T06:17:37.026Z,10.4191
2023-05-16T06:18:37.552Z,10.4814
2023-05-16T06:19:38.370Z,10.4354
2023-05-16T06:20:40.335Z,10.4201
2023-05-16T06:21:41.894Z,10.4554
2023-05-16T06:22:42.014Z,10.5309
2023-05-16T06:23:42.336Z,10.4561
2023-05-16T06:24:43.702Z,10.5112
2023-05-16T06:25:45.106Z,10.5434
2023-05-16T06:26:46.266Z,10.4373
2023-05-16T06:27:48.380Z,10.4929
2023-05-16T06:28:49.901Z,10.5018
2023-05-16T06:29:51.836Z,10.4005
2023-05-16T06:30:52.766Z,10.4054
2023-05-16T06:31:55.102Z,10.3482
2023-05-16T06:32:57.165Z,10.3370
2023-05-16T06:33:59.161Z,10.4192
2023-05-16T06:34:59.221Z,10.3978
2023-05-16T06:35:59.462Z,10.4659
2023-05-16T06:37:01.352Z,10.4770
2023-05-16T06:38:01.571Z,10.5697
2023-05-16T06:39:03.231Z,10.5273
2023-05-16T06:40:04.999Z,10.5391
2023-05-16T06:41:05.331Z,10.6108
2023-05-16T06:42:07.446Z,10.6729
2023-05-16T06:43:09.358Z,10.7224
2023-05-16T06:44:10.983Z,10.6949
2023-05-16T06:45:12.820Z,10.8585
2023-05-16T06:46:12.946Z,10.7994
2023-05-16T06:47:14.330Z,10.7539
2023-05-16T06:48:15.418Z,10.8931
2023-05-16T06:49:15.570Z,10.9153
2023-05-16T06:50:17.184Z,10.9651
2023-05-16T06:51:18.122Z,10.8942
2023-05-16T06:52:19.980Z,10.8923
2023-05-16T06:53:20.063Z,10.9503
2023-05-16T06:54:22.546Z,10.6976
2023-05-16T06:56:24.598Z,10.6920
2023-05-16T06:57:25.343Z,10.7320
2023-05-16T06:58:26.883Z,10.7444
2023-05-16T07:07:34.233Z,10.7249
2023-05-16T07:09:36.673Z,10.6862
2023-05-16T07:15:41.785Z,10.8665
2023-05-16T07:17:43.801Z,11.1334
2023-05-16T07:18:45.572Z,11.2903
2023-05-16T07:20:47.503Z,11.4038
2023-05-16T07:21:48.833Z,11.5585
2023-05-16T07:22:50.349Z,11.6646
2023-05-16T07:23:51.325Z,11.6496
2023-05-16T07:24:53.246Z,11.5397
2023-05-16T07:28:57.671Z,11.8884
2023-05-16T07:29:59.684Z,11.7723
2023-05-16T07:31:02.280Z,11.5992
2023-05-16T07:32:03.181Z,11.4137
2023-05-16T07:33:03.826Z,11.5576
2023-05-16T07:34:04.543Z,11.6485
2023-05-16T07:35:04.757Z,11.4602
2023-05-16T07:36:16.205Z,11.3951
2023-05-16T07:37:08.904Z,11.4810
2023-05-16T07:38:10.283Z,11.3433
2023-05-16T07:39:11.780Z,11.3110
2023-05-16T07:40:13.552Z,11.3033
2023-05-16T07:41:14.820Z,11.4770
2023-05-16T07:42:15.841Z,11.3859
2023-05-16T07:43:17.632Z,11.2144
2023-05-16T07:44:19.846Z,11.4206
2023-05-16T07:45:21.346Z,11.6151
2023-05-16T07:53:28.372Z,14.4375
2023-05-16T07:54:29.735Z,13.9849
2023-05-16T07:55:29.889Z,13.7936
2023-05-16T07:56:31.968Z,14.1397
2023-05-16T07:57:33.595Z,13.8419
2023-05-16T07:58:33.895Z,13.5714
2023-05-16T07:59:34.553Z,13.6929
2023-05-16T08:00:36.322Z,13.6800
2023-05-16T08:02:35.979Z,12.9964
2023-05-16T08:03:37.517Z,13.3348
2023-05-16T08:04:39.057Z,13.3992
2023-05-16T08:05:41.984Z,12.6358
2023-05-16T08:06:42.415Z,12.8371
2023-05-16T08:07:43.734Z,12.8370
2023-05-16T08:08:45.413Z,12.9109
2023-05-16T08:09:47.673Z,12.7737
2023-05-16T08:10:49.419Z,12.7061
2023-05-16T08:11:49.455Z,12.6152
2023-05-16T08:12:50.651Z,12.6817
2023-05-16T08:13:51.816Z,12.5094
2023-05-16T08:16:55.213Z,12.6622
2023-05-16T08:17:55.710Z,12.7939
2023-05-16T08:19:58.071Z,12.9530
2023-05-16T08:20:59.841Z,12.9547
2023-05-16T08:22:00.992Z,12.7909
2023-05-16T08:23:01.569Z,12.7100
2023-05-16T08:24:02.066Z,12.4208
2023-05-16T08:25:02.133Z,12.3688
2023-05-16T08:26:03.267Z,12.3770
2023-05-16T08:27:04.369Z,12.4457
2023-05-16T08:28:05.925Z,12.4268
2023-05-16T08:29:07.371Z,12.6301
2023-05-16T08:30:08.958Z,12.6072
2023-05-16T08:32:09.928Z,12.2886
2023-05-16T08:34:10.877Z,12.4727
2023-05-16T08:35:11.174Z,12.5555
2023-05-16T08:37:12.308Z,12.5102
2023-05-16T08:42:14.975Z,12.5054
2023-05-16T08:43:15.821Z,12.4872
2023-05-16T08:46:19.077Z,12.3544
2023-05-16T08:47:19.715Z,12.3625
2023-05-16T08:48:21.357Z,12.3234
2023-05-16T08:49:23.118Z,12.5798
2023-05-16T08:50:23.370Z,12.6846
2023-05-16T08:51:25.293Z,12.7690
2023-05-16T08:52:25.908Z,12.8110
2023-05-16T08:53:28.151Z,12.8323
2023-05-16T08:54:29.524Z,12.8079
2023-05-16T08:55:31.404Z,12.7619
2023-05-16T08:56:31.790Z,12.5050
2023-05-16T08:57:31.817Z,12.5154
2023-05-16T08:58:32.112Z,12.4563
2023-05-16T08:59:32.295Z,12.6047
2023-05-16T09:00:34.255Z,12.9338
2023-05-16T09:01:36.943Z,13.2717
2023-05-16T09:02:37.683Z,13.2973
2023-05-16T09:03:38.780Z,13.3797
2023-05-16T09:04:39.835Z,13.4129
2023-05-16T09:05:41.610Z,13.0454
2023-05-16T09:06:42.654Z,12.8682
2023-05-16T09:07:43.417Z,12.9722
2023-05-16T09:08:45.114Z,12.8275
2023-05-16T09:09:47.575Z,12.8242
2023-05-16T09:10:49.688Z,13.0760
2023-05-16T09:11:50.757Z,13.0901
2023-05-16T09:12:52.901Z,13.0379
2023-05-16T09:13:53.824Z,13.0374
2023-05-16T09:15:54.878Z,12.7697
2023-05-16T09:16:55.752Z,12.7514
2023-05-16T09:17:55.969Z,12.7845
2023-05-16T09:18:57.763Z,12.5623
2023-05-16T09:19:57.912Z,12.6976
2023-05-16T09:20:58.958Z,12.8220
2023-05-16T09:22:00.616Z,13.0362
2023-05-16T09:23:01.142Z,13.1814
2023-05-16T09:24:02.958Z,13.1795
2023-05-16T09:25:04.778Z,12.8637
2023-05-16T09:26:05.023Z,13.0541
2023-05-16T09:43:24.066Z,11.8739
2023-05-16T09:44:25.774Z,11.8157
2023-05-16T09:45:26.527Z,11.7341
2023-05-16T09:46:27.657Z,11.4902
2023-05-16T09:47:28.204Z,11.3742
2023-05-16T09:48:28.467Z,11.3106
2023-05-16T09:49:30.299Z,11.1946
2023-05-16T09:50:32.176Z,11.0767
2023-05-16T09:51:32.485Z,11.0585
2023-05-16T09:52:34.235Z,10.9757
2023-05-16T09:53:35.914Z,10.9210
2023-05-16T09:54:36.791Z,10.9222
2023-05-16T09:55:37.812Z,10.9413
2023-05-16T09:56:38.255Z,10.9227
2023-05-16T09:57:40.463Z,10.7814
2023-05-16T09:58:41.748Z,10.7927
2023-05-16T10:07:57.492Z,10.9739
2023-05-16T10:08:57.597Z,10.9706
2023-05-16T10:09:59.674Z,10.6928
2023-05-16T10:11:02.123Z,10.6620
2023-05-16T10:14:06.000Z,10.8773
2023-05-16T10:15:04.152Z,10.9721
2023-05-16T10:17:06.594Z,11.2199
2023-05-16T10:18:08.686Z,11.3249
2023-05-16T10:23:13.560Z,11.1487
2023-05-16T10:25:15.389Z,11.2130
2023-05-16T10:26:16.558Z,11.2569
2023-05-16T10:27:19.103Z,11.2407
2023-05-16T10:28:17.326Z,11.3238
2023-05-16T10:30:22.126Z,11.3720
2023-05-16T10:33:23.462Z,10.7785
2023-05-16T10:34:24.837Z,10.7992
2023-05-16T10:35:27.677Z,10.7936
2023-05-16T10:36:27.633Z,10.7762
2023-05-16T10:37:29.880Z,10.8122
2023-05-16T10:38:31.948Z,10.7010
2023-05-16T10:39:32.762Z,10.6613
2023-05-16T10:40:33.434Z,10.7530
2023-05-16T10:41:34.044Z,10.6298
2023-05-16T10:43:35.305Z,10.4638
2023-05-16T10:44:37.473Z,10.4225
2023-05-16T10:45:39.050Z,10.3440
2023-05-16T10:54:47.883Z,10.1897
2023-05-16T10:55:48.201Z,10.1812
2023-05-16T10:56:49.298Z,10.1946
2023-05-16T10:57:50.111Z,10.2555
2023-05-16T10:58:52.068Z,10.3149
2023-05-16T10:59:53.385Z,10.4000
2023-05-16T11:00:53.471Z,10.5410
2023-05-16T11:01:55.601Z,10.6420
2023-05-16T11:02:57.945Z,10.6599
2023-05-16T11:07:29.795Z,10.8625
2023-05-16T11:08:30.218Z,10.8302
2023-05-16T11:09:32.064Z,10.8696
2023-05-16T11:10:33.779Z,10.9341
2023-05-16T11:11:34.896Z,10.8385
2023-05-16T11:12:37.084Z,10.8113
2023-05-16T11:13:39.235Z,10.7411
2023-05-16T11:14:40.037Z,10.7120
2023-05-16T11:15:41.924Z,10.7140
2023-05-16T11:16:43.499Z,10.6924
2023-05-16T11:17:46.096Z,10.7559
2023-05-16T11:18:46.059Z,10.7880
2023-05-16T11:19:47.949Z,10.7071
2023-05-16T11:20:50.072Z,10.6125
2023-05-16T11:21:52.066Z,10.6953
2023-05-16T11:22:52.367Z,10.6690
2023-05-16T11:23:53.118Z,10.6074
2023-05-16T11:24:54.869Z,10.6572
2023-05-16T11:25:55.206Z,10.7605
2023-05-16T11:26:57.422Z,10.7420
2023-05-16T11:27:59.324Z,10.6414
2023-05-16T11:28:59.717Z,10.5425
2023-05-16T11:30:02.065Z,10.4443
2023-05-16T11:31:01.763Z,10.3741
2023-05-16T11:32:02.639Z,10.3465
2023-05-16T11:33:03.409Z,10.3389
2023-05-16T11:34:04.027Z,10.3622
2023-05-16T11:35:04.825Z,10.3909
2023-05-16T11:36:14.519Z,10.3998
2023-05-16T11:37:08.083Z,10.2874
2023-05-16T11:38:10.206Z,10.3043
2023-05-16T11:39:11.530Z,10.2480
2023-05-16T11:40:13.009Z,10.2393
2023-05-16T11:41:14.538Z,10.2998
2023-05-16T11:42:14.631Z,10.2381
2023-05-16T11:43:16.489Z,10.2042
2023-05-16T11:44:17.212Z,10.2378
2023-05-16T11:45:18.874Z,10.3635
2023-05-16T11:47:22.805Z,10.2985
2023-05-16T11:48:35.825Z,10.3920
2023-05-16T11:49:26.535Z,10.3137
2023-05-16T11:50:28.786Z,10.3049
2023-05-16T11:51:30.239Z,10.2147
2023-05-16T11:52:30.702Z,10.2074
2023-05-16T11:53:30.834Z,10.2364
2023-05-16T11:55:41.946Z,10.2665
2023-05-16T11:56:35.072Z,10.3315
2023-05-16T11:57:36.702Z,10.3558
2023-05-16T11:58:38.476Z,10.3324
2023-05-16T11:59:40.027Z,10.3100
2023-05-16T12:00:40.094Z,10.2730
2023-05-16T12:01:42.023Z,10.3234
2023-05-16T12:02:44.012Z,10.2904
2023-05-16T12:04:47.871Z,10.3758
2023-05-16T12:05:48.666Z,10.3340
2023-05-16T12:06:50.421Z,10.4062
2023-05-16T12:07:51.640Z,10.4228
2023-05-16T12:08:53.608Z,10.3993
2023-05-16T12:09:55.794Z,10.4457
2023-05-16T12:10:57.897Z,10.4389
2023-05-16T12:11:58.134Z,10.4565
2023-05-16T12:12:59.638Z,10.3905
2023-05-16T12:14:00.998Z,10.3853
2023-05-16T12:15:02.634Z,10.3279
2023-05-16T12:17:05.101Z,10.4899
2023-05-16T12:18:06.772Z,10.5654
2023-05-16T12:19:08.947Z,10.5271
2023-05-16T12:20:08.990Z,10.6969
2023-05-16T12:21:11.058Z,10.8374
2023-05-16T12:22:12.421Z,10.8695
2023-05-16T12:23:14.359Z,10.9380
2023-05-16T12:24:15.406Z,10.7670
2023-05-16T12:25:16.158Z,10.8334
2023-05-16T12:26:16.650Z,10.8147
2023-05-16T12:27:16.945Z,10.7961
2023-05-16T12:28:16.982Z,10.7355
2023-05-16T12:29:18.001Z,10.7881
2023-05-16T12:30:20.226Z,10.7338
2023-05-16T12:31:31.125Z,10.6933
2023-05-16T12:32:22.051Z,10.6073
2023-05-16T12:33:22.795Z,10.5834
2023-05-16T12:34:24.683Z,10.5833
2023-05-16T12:35:25.912Z,10.5513
2023-05-16T12:36:27.060Z,10.5573
2023-05-16T12:37:28.521Z,10.5348
2023-05-16T12:38:30.741Z,10.4930
2023-05-16T12:39:34.391Z,10.4476
2023-05-16T12:40:32.557Z,10.4829
2023-05-16T12:41:33.451Z,10.4825
2023-05-16T12:42:35.473Z,10.3667
2023-05-16T12:43:35.654Z,10.4179
2023-05-16T12:44:36.438Z,10.4810
2023-05-16T12:45:37.954Z,10.4696
2023-05-16T12:46:39.148Z,10.4931
2023-05-16T12:47:40.883Z,10.4580
2023-05-16T12:48:42.329Z,10.5440
2023-05-16T12:49:44.185Z,10.5052
2023-05-16T12:50:45.931Z,10.6163
2023-05-16T12:51:48.090Z,10.5232
2023-05-16T12:52:49.995Z,10.4105
2023-05-16T12:54:08.616Z,10.3834
2023-05-16T12:54:53.531Z,10.4157
2023-05-16T12:55:55.702Z,10.3878
2023-05-16T12:56:56.585Z,10.3361
2023-05-16T12:57:58.889Z,10.3018
2023-05-16T12:59:00.213Z,10.3076
2023-05-16T13:00:02.293Z,10.1822
2023-05-16T13:02:02.507Z,10.2250
2023-05-16T13:03:03.834Z,10.1688
2023-05-16T13:04:06.285Z,10.2575
2023-05-16T13:05:06.129Z,10.3160
2023-05-16T13:06:08.169Z,10.2830
2023-05-16T13:07:08.301Z,10.3185
2023-05-16T13:08:09.573Z,10.2895
2023-05-16T13:09:10.308Z,10.3673
2023-05-16T13:10:12.289Z,10.3686
2023-05-16T13:11:13.466Z,10.3801
2023-05-16T13:14:17.650Z,10.3499
2023-05-16T13:15:18.192Z,10.3815
2023-05-16T13:16:19.532Z,10.3723
2023-05-16T13:17:19.560Z,10.3847
2023-05-16T13:19:21.971Z,10.4214
2023-05-16T13:20:22.753Z,10.3782
2023-05-16T13:22:24.378Z,10.5724
2023-05-16T13:23:26.088Z,10.6551
2023-05-16T13:24:28.312Z,10.7001
2023-05-16T13:25:30.439Z,10.6488
2023-05-16T13:26:31.009Z,10.6830
2023-05-16T13:27:31.089Z,10.7112
2023-05-16T13:28:32.938Z,10.6990
2023-05-16T13:29:34.908Z,10.7557
2023-05-16T13:30:36.938Z,10.8251
2023-05-16T13:31:37.640Z,10.8924
2023-05-16T13:32:39.792Z,11.0192
2023-05-16T13:33:40.127Z,10.9569
2023-05-16T13:34:42.149Z,10.9647
2023-05-16T13:35:43.635Z,11.0665
2023-05-16T13:36:53.779Z,11.1295
2023-05-16T13:47:25.406Z,11.4159
2023-05-16T13:48:27.278Z,11.3062
2023-05-16T13:49:28.896Z,11.2248
2023-05-16T13:50:33.363Z,11.1525
2023-05-16T13:51:29.155Z,11.0762
2023-05-16T13:52:31.237Z,10.9362
2023-05-16T13:53:33.127Z,10.9732
2023-05-16T13:54:33.553Z,10.9528
2023-05-16T13:55:34.727Z,10.8643
2023-05-16T13:56:36.128Z,10.8068
2023-05-16T13:57:38.241Z,10.7957
2023-05-16T14:00:05.739Z,10.9330
2023-05-16T14:00:45.176Z,10.9008
2023-05-16T14:01:41.856Z,10.8952
2023-05-16T14:02:42.276Z,10.9034
2023-05-16T14:03:43.446Z,10.9135
2023-05-16T14:04:46.759Z,10.9405
2023-05-16T14:05:47.374Z,10.9266
2023-05-16T14:06:47.907Z,10.9354
2023-05-16T14:07:49.015Z,10.8273
2023-05-16T14:08:50.163Z,10.8036
2023-05-16T14:09:51.015Z,10.7715
2023-05-16T14:10:53.011Z,10.8125
2023-05-16T14:11:53.794Z,10.8101
2023-05-16T14:12:54.971Z,10.7933
2023-05-16T14:13:56.314Z,10.8340
2023-05-16T14:14:57.368Z,10.8923
2023-05-16T14:15:58.713Z,10.9270
2023-05-16T14:18:00.942Z,10.8912
2023-05-16T14:19:03.198Z,10.9654
2023-05-16T14:20:03.188Z,10.8918
2023-05-16T14:21:04.864Z,10.8501
2023-05-16T14:22:05.308Z,10.8944
2023-05-16T14:23:07.142Z,10.9166
2023-05-16T14:26:12.057Z,11.1108
2023-05-16T14:27:12.313Z,11.1104
2023-05-16T14:28:13.932Z,10.9653
2023-05-16T14:29:15.466Z,11.0245
2023-05-16T14:30:16.888Z,11.0263
2023-05-16T14:31:18.945Z,11.0197
2023-05-16T14:32:19.069Z,10.9684
2023-05-16T14:34:21.310Z,10.9516
2023-05-16T14:35:21.462Z,10.9689
2023-05-16T14:36:22.007Z,10.9451
2023-05-16T14:37:22.782Z,10.9563
2023-05-16T14:38:24.816Z,10.9429
2023-05-16T14:39:26.550Z,10.9845
2023-05-16T14:40:28.292Z,10.9281
2023-05-16T14:41:28.969Z,10.8944
2023-05-16T14:42:29.286Z,10.9099
2023-05-16T14:43:30.656Z,10.9084
2023-05-16T14:44:30.993Z,10.9215
2023-05-16T14:45:32.924Z,10.9149
2023-05-16T14:46:34.797Z,10.8484
2023-05-16T14:47:35.193Z,10.8603
2023-05-16T14:48:35.661Z,10.7798
2023-05-16T14:49:36.111Z,10.6858
2023-05-16T14:50:38.156Z,10.6893
2023-05-16T14:51:39.549Z,10.7513
2023-05-16T14:52:41.645Z,10.6522
2023-05-16T14:53:43.322Z,10.6414
2023-05-16T14:54:43.199Z,10.6088
2023-05-16T14:55:43.486Z,10.6405
2023-05-16T14:58:47.525Z,10.5757
2023-05-16T14:59:47.887Z,10.6033
2023-05-16T15:00:49.431Z,10.6406
2023-05-16T15:01:51.333Z,10.6798
2023-05-16T15:02:52.474Z,10.5588
2023-05-16T15:04:56.460Z,10.5517
2023-05-16T15:05:58.157Z,10.5516
2023-05-16T15:06:58.821Z,10.5829
2023-05-16T15:07:58.897Z,10.6146
2023-05-16T15:08:59.734Z,10.5953
2023-05-16T15:09:59.752Z,10.5766
2023-05-16T15:10:59.802Z,10.5960
2023-05-16T15:12:01.847Z,10.5268
2023-05-16T15:13:03.794Z,10.5532
2023-05-16T15:14:05.686Z,10.5353
2023-05-16T15:15:05.948Z,10.5312
2023-05-16T15:16:07.921Z,10.5698
2023-05-16T15:17:09.834Z,10.5602
2023-05-16T15:18:10.284Z,10.5636
2023-05-16T15:19:10.861Z,10.6176
2023-05-16T15:20:11.177Z,10.6427
2023-05-16T15:21:13.143Z,10.6050
2023-05-16T15:22:13.822Z,10.6545
2023-05-16T15:23:14.953Z,10.7011
2023-05-16T15:24:15.836Z,10.7706
2023-05-16T15:25:16.397Z,10.7902
2023-05-16T15:26:16.750Z,10.8684
2023-05-16T15:27:16.824Z,10.8580
2023-05-16T15:28:18.737Z,10.9084
2023-05-16T15:29:18.252Z,10.9433
2023-05-16T15:30:19.697Z,10.8910
2023-05-16T15:31:21.249Z,10.9584
2023-05-16T15:32:22.465Z,10.9056
2023-05-16T15:33:22.657Z,10.8417
2023-05-16T15:34:24.188Z,10.7825
2023-05-16T15:35:25.730Z,10.7405
2023-05-16T15:36:27.629Z,10.7028
2023-05-16T15:37:28.534Z,10.6374
2023-05-16T15:38:30.258Z,10.6740
2023-05-16T15:39:32.373Z,10.6838
2023-05-16T15:40:32.841Z,10.6677
2023-05-16T15:42:35.955Z,10.7105
2023-05-16T15:44:37.020Z,10.6692
2023-05-16T15:45:39.871Z,10.7176
2023-05-16T15:46:38.308Z,10.7938
2023-05-16T15:47:40.094Z,10.7865
2023-05-16T15:48:41.337Z,10.8725
2023-05-16T15:49:42.528Z,11.0099
2023-05-16T15:51:45.504Z,10.8272
2023-05-16T15:52:45.932Z,10.7308
2023-05-16T15:53:45.997Z,10.7629
2023-05-16T15:54:47.656Z,10.7716
2023-05-16T15:55:47.929Z,10.7747
2023-05-16T15:56:49.250Z,10.8327
2023-05-16T15:59:52.831Z,10.7799
2023-05-16T16:00:54.599Z,10.7194
2023-05-16T16:01:54.727Z,10.7269
2023-05-16T16:02:56.882Z,10.6767
2023-05-16T16:03:57.307Z,10.5948
2023-05-16T16:04:59.081Z,10.6076
2023-05-16T16:06:00.378Z,10.5977
2023-05-16T16:07:02.052Z,10.5395
2023-05-16T16:08:03.231Z,10.5427
2023-05-16T16:09:05.212Z,10.4959
2023-05-16T16:10:06.314Z,10.5308
2023-05-16T16:11:07.930Z,10.5069
2023-05-16T16:12:08.637Z,10.4932
2023-05-16T16:13:10.658Z,10.4190
2023-05-16T16:14:12.180Z,10.4382
2023-05-16T16:15:13.069Z,10.4384
2023-05-16T16:16:13.398Z,10.3830
2023-05-16T16:17:15.495Z,10.3460
2023-05-16T16:18:17.613Z,10.3106
2023-05-16T16:19:19.535Z,10.3056
2023-05-16T16:20:21.400Z,10.2907
2023-05-16T16:21:23.461Z,10.2893
2023-05-16T16:22:24.914Z,10.2928
2023-05-16T16:23:26.279Z,10.1962
2023-05-16T16:24:27.914Z,10.2302
2023-05-16T16:25:29.643Z,10.2339
2023-05-16T16:26:30.311Z,10.2437
2023-05-16T16:27:32.141Z,10.2374
2023-05-16T16:28:34.280Z,10.2557